createdAt,value
2018-09-15T00:00:53.081Z,1.70
2018-09-15T00:03:21.604Z,1.50
2018-09-15T00:05:50.097Z,1.63
2018-09-15T00:08:18.518Z,2.03
2018-09-15T00:10:47.293Z,2.00
2018-09-15T00:13:16.111Z,1.53
2018-09-15T00:15:44.538Z,1.50
2018-09-15T00:18:14.495Z,1.57
2018-09-15T00:20:43.112Z,2.10
2018-09-15T00:23:12.199Z,1.50
2018-09-15T00:25:41.432Z,1.50
2018-09-15T00:28:10.775Z,1.53
2018-09-15T00:30:39.253Z,1.53
2018-09-15T00:33:09.494Z,1.83
2018-09-15T00:35:37.929Z,1.77
2018-09-15T00:38:08.630Z,1.80
2018-09-15T00:40:39.528Z,1.70
2018-09-15T00:43:07.902Z,1.63
2018-09-15T00:45:37.007Z,1.60
2018-09-15T00:48:05.376Z,1.93
2018-09-15T00:50:35.096Z,1.57
2018-09-15T00:53:04.395Z,2.30
2018-09-15T00:55:32.773Z,1.80
2018-09-15T00:58:01.248Z,1.63
2018-09-15T01:00:29.904Z,2.03
2018-09-15T01:03:06.039Z,2.27
2018-09-15T01:05:37.768Z,1.90
2018-09-15T01:08:06.240Z,1.80
2018-09-15T01:10:38.220Z,1.60
2018-09-15T01:13:06.685Z,2.63
2018-09-15T01:15:35.027Z,2.30
2018-09-15T01:18:04.051Z,2.07
2018-09-15T01:20:32.590Z,1.97
2018-09-15T01:23:01.085Z,1.90
2018-09-15T01:25:31.254Z,2.30
2018-09-15T01:27:59.659Z,2.20
2018-09-15T01:30:29.371Z,2.30
2018-09-15T01:32:58.785Z,2.00
2018-09-15T01:35:28.488Z,2.47
2018-09-15T01:37:56.829Z,2.23
2018-09-15T01:40:25.767Z,2.03
2018-09-15T01:42:54.145Z,2.20
2018-09-15T01:45:29.588Z,2.30
2018-09-15T01:48:05.106Z,2.17
2018-09-15T01:50:34.198Z,2.33
2018-09-15T01:53:03.056Z,2.90
2018-09-15T01:55:31.504Z,2.50
2018-09-15T01:57:59.880Z,2.00
2018-09-15T02:00:28.467Z,2.20
2018-09-15T02:02:57.051Z,2.00
2018-09-15T02:05:25.496Z,2.43
2018-09-15T02:07:54.241Z,2.47
2018-09-15T02:10:22.681Z,3.07
2018-09-15T02:12:51.470Z,2.23
2018-09-15T02:15:21.466Z,2.23
2018-09-15T02:17:51.054Z,2.27
2018-09-15T02:20:19.518Z,2.20
2018-09-15T02:22:55.668Z,2.63
2018-09-15T02:25:24.458Z,2.90
2018-09-15T02:27:52.903Z,2.70
2018-09-15T02:30:21.521Z,2.97
2018-09-15T02:32:50.296Z,2.83
2018-09-15T02:35:18.796Z,2.40
2018-09-15T02:37:53.253Z,2.60
2018-09-15T02:40:22.444Z,2.83
2018-09-15T02:42:54.068Z,2.70
2018-09-15T02:45:23.077Z,2.40
2018-09-15T02:47:51.806Z,2.40
2018-09-15T02:50:20.410Z,2.40
2018-09-15T02:52:50.012Z,3.03
2018-09-15T02:55:19.578Z,2.43
2018-09-15T02:57:48.247Z,2.40
2018-09-15T03:00:17.547Z,2.77
2018-09-15T03:02:47.519Z,2.60
2018-09-15T03:05:16.158Z,2.10
2018-09-15T03:07:44.564Z,2.00
2018-09-15T03:10:12.989Z,2.20
2018-09-15T03:12:41.395Z,1.80
2018-09-15T03:15:09.776Z,1.70
2018-09-15T03:17:38.172Z,2.33
2018-09-15T03:20:06.729Z,1.60
2018-09-15T03:22:35.281Z,1.77
2018-09-15T03:25:03.786Z,1.70
2018-09-15T03:27:33.200Z,1.47
2018-09-15T03:30:01.571Z,1.80
2018-09-15T03:32:29.920Z,1.53
2018-09-15T03:34:58.698Z,2.23
2018-09-15T03:37:27.195Z,1.70
2018-09-15T03:39:55.658Z,1.83
2018-09-15T03:42:24.225Z,1.97
2018-09-15T03:44:53.249Z,1.60
2018-09-15T03:47:23.121Z,1.60
2018-09-15T03:49:51.661Z,2.03
2018-09-15T03:52:20.093Z,1.73
2018-09-15T03:54:48.706Z,2.10
2018-09-15T03:57:17.232Z,1.90
2018-09-15T03:59:45.674Z,2.30
2018-09-15T04:02:14.271Z,2.10
2018-09-15T04:04:42.721Z,1.60
2018-09-15T04:07:11.165Z,2.07
2018-09-15T04:09:39.603Z,2.43
2018-09-15T04:12:16.026Z,2.13
2018-09-15T04:14:44.605Z,2.10
2018-09-15T04:17:14.701Z,1.57
2018-09-15T04:19:43.256Z,2.07
2018-09-15T04:22:11.745Z,1.67
2018-09-15T04:24:40.183Z,1.73
2018-09-15T04:27:08.656Z,2.00
2018-09-15T04:29:37.452Z,1.80
2018-09-15T04:32:05.847Z,1.90
2018-09-15T04:34:35.223Z,2.00
2018-09-15T04:37:03.592Z,2.00
2018-09-15T04:39:32.077Z,2.00
2018-09-15T04:42:00.646Z,2.07
2018-09-15T04:44:29.055Z,2.07
2018-09-15T04:46:57.497Z,2.50
2018-09-15T04:49:25.875Z,1.53
2018-09-15T04:51:54.281Z,2.37
2018-09-15T04:54:22.742Z,2.27
2018-09-15T04:56:51.257Z,2.10
2018-09-15T04:59:19.747Z,2.10
2018-09-15T05:01:49.056Z,2.00
2018-09-15T05:04:17.517Z,2.80
2018-09-15T05:06:46.161Z,2.17
2018-09-15T05:09:14.791Z,2.20
2018-09-15T05:11:43.207Z,2.40
2018-09-15T05:14:11.606Z,2.33
2018-09-15T05:16:40.047Z,2.50
2018-09-15T05:19:08.417Z,2.30
2018-09-15T05:21:36.817Z,2.47
2018-09-15T05:24:05.332Z,2.30
2018-09-15T05:26:33.699Z,2.33
2018-09-15T05:29:02.107Z,2.50
2018-09-15T05:31:30.609Z,1.87
2018-09-15T05:33:58.907Z,1.93
2018-09-15T05:36:27.264Z,1.90
2018-09-15T05:38:55.782Z,1.87
2018-09-15T05:41:24.191Z,1.80
2018-09-15T05:43:52.626Z,1.50
2018-09-15T05:46:21.009Z,2.20
2018-09-15T05:48:49.447Z,2.20
2018-09-15T05:51:18.107Z,2.37
2018-09-15T05:53:52.728Z,2.10
2018-09-15T05:56:21.277Z,2.10
2018-09-15T05:58:50.273Z,2.07
2018-09-15T06:01:18.723Z,2.20
2018-09-15T06:03:48.074Z,2.30
2018-09-15T06:06:16.492Z,1.93
2018-09-15T06:08:47.337Z,2.20
2018-09-15T06:11:15.880Z,2.00
2018-09-15T06:13:44.462Z,2.07
2018-09-15T06:16:12.924Z,1.90
2018-09-15T06:18:42.193Z,2.17
2018-09-15T06:21:10.677Z,1.70
2018-09-15T06:23:39.109Z,1.97
2018-09-15T06:26:07.796Z,2.10
2018-09-15T06:28:36.441Z,2.07
2018-09-15T06:31:05.006Z,2.60
2018-09-15T06:33:34.195Z,2.30
2018-09-15T06:36:02.650Z,1.80
2018-09-15T06:38:31.264Z,2.30
2018-09-15T06:41:00.638Z,2.33
2018-09-15T06:43:29.109Z,2.33
2018-09-15T06:45:57.635Z,2.00
2018-09-15T06:48:26.116Z,2.10
2018-09-15T06:50:54.613Z,2.40
2018-09-15T06:53:23.109Z,2.10
2018-09-15T06:55:51.676Z,2.13
2018-09-15T06:58:20.381Z,1.70
2018-09-15T07:00:49.522Z,2.00
2018-09-15T07:03:18.121Z,1.90
2018-09-15T07:05:46.667Z,2.47
2018-09-15T07:08:16.902Z,1.77
2018-09-15T07:10:45.439Z,1.90
2018-09-15T07:13:14.696Z,1.87
2018-09-15T07:15:43.122Z,1.80
2018-09-15T07:18:11.534Z,2.13
2018-09-15T07:20:40.704Z,1.83
2018-09-15T07:23:09.113Z,1.73
2018-09-15T07:25:38.622Z,1.90
2018-09-15T07:28:07.575Z,1.90
2018-09-15T07:30:37.323Z,2.00
2018-09-15T07:33:05.904Z,1.50
2018-09-15T07:35:40.763Z,1.50
2018-09-15T07:38:09.171Z,1.70
2018-09-15T07:40:37.653Z,1.77
2018-09-15T07:43:12.834Z,1.77
2018-09-15T07:45:42.079Z,1.50
2018-09-15T07:48:10.898Z,1.57
2018-09-15T07:50:39.641Z,2.20
2018-09-15T07:53:09.146Z,1.60
2018-09-15T07:55:38.450Z,1.83
2018-09-15T07:58:07.386Z,1.67
2018-09-15T08:00:42.677Z,1.40
2018-09-15T08:03:11.610Z,1.63
2018-09-15T08:05:42.500Z,1.40
2018-09-15T08:08:11.058Z,1.63
2018-09-15T08:10:39.582Z,1.43
2018-09-15T08:13:10.714Z,1.33
2018-09-15T08:15:40.262Z,1.50
2018-09-15T08:18:08.830Z,1.57
2018-09-15T08:20:37.864Z,1.40
2018-09-15T08:23:07.276Z,1.53
2018-09-15T08:25:35.838Z,1.50
2018-09-15T08:33:49.765Z,1.93
2018-09-15T08:36:19.051Z,1.37
2018-09-15T08:38:50.097Z,1.37
2018-09-15T08:41:18.663Z,1.37
2018-09-15T08:43:53.732Z,1.30
2018-09-15T08:46:22.295Z,1.53
2018-09-15T08:48:50.668Z,1.60
2018-09-15T08:51:19.748Z,1.83
2018-09-15T08:53:48.370Z,1.20
2018-09-15T08:56:17.244Z,1.30
2018-09-15T08:58:45.711Z,1.20
2018-09-15T09:01:15.455Z,1.07
2018-09-15T09:03:44.327Z,1.30
2018-09-15T09:06:13.038Z,1.40
2018-09-15T09:08:41.605Z,1.20
2018-09-15T09:11:10.063Z,1.40
2018-09-15T09:13:38.920Z,1.20
2018-09-15T09:16:09.733Z,1.30
2018-09-15T09:18:38.448Z,1.33
2018-09-15T09:21:07.814Z,1.60
2018-09-15T09:23:39.560Z,1.13
2018-09-15T09:26:10.223Z,1.10
2018-09-15T09:28:39.444Z,1.20
2018-09-15T09:31:08.262Z,1.50
2018-09-15T09:33:36.956Z,1.10
2018-09-15T09:38:51.736Z,1.57
2018-09-15T09:41:20.675Z,1.10
2018-09-15T09:43:49.358Z,1.40
2018-09-15T09:46:17.811Z,1.27
2018-09-15T09:48:46.398Z,1.37
2018-09-15T09:51:15.062Z,1.33
2018-09-15T09:53:43.871Z,1.20
2018-09-15T09:56:12.248Z,1.40
2018-09-15T09:58:40.665Z,1.67
2018-09-15T10:01:14.647Z,1.40
2018-09-15T10:03:42.895Z,1.67
2018-09-15T10:06:11.291Z,1.40
2018-09-15T10:08:39.680Z,1.37
2018-09-15T10:11:08.114Z,1.13
2018-09-15T10:13:36.450Z,1.30
2018-09-15T10:16:04.940Z,1.07
2018-09-15T10:18:33.629Z,1.50
2018-09-15T10:21:02.016Z,1.20
2018-09-15T10:23:30.471Z,1.40
2018-09-15T10:25:58.853Z,1.27
2018-09-15T10:28:27.426Z,1.53
2018-09-15T10:30:56.137Z,1.40
2018-09-15T10:33:24.696Z,1.30
2018-09-15T10:35:53.296Z,1.40
2018-09-15T10:38:22.115Z,1.60
2018-09-15T10:40:50.645Z,1.10
2018-09-15T10:43:19.281Z,1.23
2018-09-15T10:45:47.891Z,1.20
2018-09-15T10:48:16.420Z,1.57
2018-09-15T10:50:45.073Z,1.60
2018-09-15T10:53:20.576Z,2.10
2018-09-15T10:55:49.389Z,1.20
2018-09-15T10:58:22.559Z,2.80
2018-09-15T11:00:51.517Z,1.30
2018-09-15T11:03:22.302Z,1.10
2018-09-15T11:05:51.039Z,1.03
2018-09-15T11:08:19.753Z,1.10
2018-09-15T11:10:49.351Z,1.37
2018-09-15T11:13:18.183Z,1.20
2018-09-15T11:15:47.173Z,1.27
2018-09-15T11:18:15.770Z,1.17
2018-09-15T11:20:44.401Z,1.10
2018-09-15T11:23:13.943Z,1.27
2018-09-15T11:25:42.663Z,1.17
2018-09-15T11:28:11.480Z,1.47
2018-09-15T11:30:40.044Z,1.40
2018-09-15T11:33:08.592Z,1.60
2018-09-15T11:35:37.163Z,1.20
2018-09-15T11:38:06.616Z,1.40
2018-09-15T11:40:35.259Z,2.00
2018-09-15T11:43:03.844Z,1.23
2018-09-15T11:45:32.831Z,1.60
2018-09-15T11:48:08.588Z,1.40
2018-09-15T11:50:37.757Z,1.40
2018-09-15T11:53:07.735Z,1.57
2018-09-15T11:55:36.414Z,1.30
2018-09-15T11:58:05.814Z,1.30
2018-09-15T12:00:38.683Z,0.90
2018-09-15T12:03:11.967Z,1.30
2018-09-15T12:05:41.282Z,1.10
2018-09-15T12:08:12.957Z,1.70
2018-09-15T12:10:42.310Z,1.20
2018-09-15T12:13:10.803Z,1.40
2018-09-15T12:15:40.073Z,1.30
2018-09-15T12:18:08.731Z,1.43
2018-09-15T12:20:38.228Z,1.13
2018-09-15T12:23:07.144Z,1.37
2018-09-15T12:25:36.962Z,1.23
2018-09-15T12:28:06.239Z,1.37
2018-09-15T12:30:34.893Z,1.20
2018-09-15T12:33:03.789Z,1.07
2018-09-15T12:35:35.741Z,1.60
2018-09-15T12:38:05.343Z,1.30
2018-09-15T12:40:37.834Z,1.30
2018-09-15T12:43:14.833Z,1.30
2018-09-15T12:46:04.489Z,1.37
2018-09-15T12:48:34.263Z,1.10
2018-09-15T12:51:03.566Z,0.90
2018-09-15T12:53:32.804Z,1.20
2018-09-15T12:56:24.451Z,1.40
2018-09-15T12:58:53.451Z,1.30
2018-09-15T13:01:25.551Z,1.37
2018-09-15T13:03:54.517Z,1.20
2018-09-15T13:06:24.623Z,1.20
2018-09-15T13:08:53.384Z,1.30
2018-09-15T13:11:21.975Z,1.30
2018-09-15T13:13:50.555Z,1.50
2018-09-15T13:16:19.371Z,1.20
2018-09-15T13:18:49.045Z,1.40
2018-09-15T13:21:17.686Z,1.23
2018-09-15T13:23:46.728Z,1.20
2018-09-15T13:26:15.412Z,1.27
2018-09-15T13:28:43.884Z,1.20
2018-09-15T13:31:12.351Z,1.50
2018-09-15T13:33:40.996Z,1.50
2018-09-15T13:36:09.779Z,1.23
2018-09-15T13:38:38.292Z,1.20
2018-09-15T13:41:06.840Z,1.50
2018-09-15T13:43:35.507Z,1.20
2018-09-15T13:46:06.261Z,1.30
2018-09-15T13:48:37.963Z,1.20
2018-09-15T13:51:06.523Z,1.30
2018-09-15T13:53:36.459Z,1.33
2018-09-15T13:56:07.002Z,1.20
2018-09-15T13:58:35.963Z,1.20
2018-09-15T14:01:04.556Z,1.37
2018-09-15T14:03:33.046Z,1.60
2018-09-15T14:06:02.009Z,1.37
2018-09-15T14:08:30.602Z,1.20
2018-09-15T14:10:59.551Z,1.17
2018-09-15T14:48:50.870Z,1.60
2018-09-15T14:51:19.320Z,1.93
2018-09-15T14:53:48.702Z,1.30
2018-09-15T14:56:17.513Z,1.20
2018-09-15T14:58:47.264Z,1.50
2018-09-15T15:01:16.101Z,1.50
2018-09-15T15:03:46.493Z,1.60
2018-09-15T15:06:15.959Z,1.23
2018-09-15T15:08:44.492Z,1.40
2018-09-15T15:11:12.970Z,1.47
2018-09-15T15:13:41.674Z,1.70
2018-09-15T15:16:10.457Z,2.87
2018-09-15T15:18:40.073Z,1.30
2018-09-15T15:21:08.506Z,4.10
2018-09-15T15:23:38.271Z,1.47
2018-09-15T15:26:08.847Z,2.17
2018-09-15T15:28:37.430Z,6.67
2018-09-15T15:31:11.284Z,1.97
2018-09-15T15:33:43.221Z,9.30
2018-09-15T15:36:13.118Z,4.77
2018-09-15T15:38:42.853Z,4.00
2018-09-15T15:41:13.669Z,6.77
2018-09-15T15:43:45.300Z,4.13
2018-09-15T15:46:13.855Z,3.20
2018-09-15T15:48:43.507Z,2.50
2018-09-15T15:51:12.241Z,2.00
2018-09-15T15:53:40.928Z,2.20
2018-09-15T15:56:09.438Z,2.43
2018-09-15T15:58:38.097Z,2.10
2018-09-15T16:01:06.473Z,2.30
2018-09-15T16:03:34.960Z,1.90
2018-09-15T16:06:03.516Z,1.67
2018-09-15T16:08:32.036Z,1.30
2018-09-15T16:11:00.615Z,1.53
2018-09-15T16:13:29.053Z,2.17
2018-09-15T16:15:58.704Z,1.60
2018-09-15T16:18:27.607Z,1.80
2018-09-15T16:20:55.983Z,1.60
2018-09-15T16:23:24.619Z,1.50
2018-09-15T16:25:53.483Z,1.63
2018-09-15T16:28:22.348Z,1.80
2018-09-15T16:30:50.883Z,1.27
2018-09-15T16:33:19.332Z,1.33
2018-09-15T16:35:48.492Z,1.93
2018-09-15T16:38:18.076Z,1.70
2018-09-15T16:40:46.546Z,1.50
2018-09-15T16:43:14.978Z,1.80
2018-09-15T16:45:43.362Z,1.80
2018-09-15T16:48:11.743Z,1.80
2018-09-15T16:50:40.357Z,1.57
2018-09-15T16:53:53.015Z,2.20
2018-09-15T16:56:22.787Z,2.10
2018-09-15T16:58:53.555Z,1.60
2018-09-15T17:01:32.805Z,1.43
2018-09-15T17:04:31.427Z,1.63
2018-09-15T17:07:09.250Z,1.83
2018-09-15T17:09:38.548Z,1.60
2018-09-15T17:12:09.584Z,1.47
2018-09-15T17:14:48.389Z,1.67
2018-09-15T17:17:19.934Z,2.20
2018-09-15T17:19:57.336Z,1.40
2018-09-15T17:22:30.316Z,1.63
2018-09-15T17:25:01.218Z,1.90
2018-09-15T17:27:30.166Z,2.20
2018-09-15T17:30:03.224Z,2.40
2018-09-15T17:32:31.844Z,3.17
2018-09-15T17:35:01.463Z,2.20
2018-09-15T17:37:31.195Z,1.87
2018-09-15T17:39:59.709Z,1.87
2018-09-15T17:42:28.645Z,2.27
2018-09-15T17:44:57.306Z,2.57
2018-09-15T17:47:25.922Z,2.33
2018-09-15T17:49:54.401Z,6.00
2018-09-15T17:52:23.166Z,10.93
2018-09-15T17:54:51.947Z,8.67
2018-09-15T17:57:20.557Z,2.80
2018-09-15T17:59:55.580Z,2.40
2018-09-15T18:02:24.284Z,2.60
2018-09-15T18:04:53.083Z,2.40
2018-09-15T18:07:21.677Z,2.40
2018-09-15T18:09:50.558Z,2.50
2018-09-15T18:12:19.194Z,2.53
2018-09-15T18:14:47.884Z,2.80
2018-09-15T18:17:16.571Z,5.23
2018-09-15T18:19:50.801Z,3.10
2018-09-15T18:22:20.949Z,3.30
2018-09-15T18:24:51.307Z,3.03
2018-09-15T18:27:20.296Z,3.00
2018-09-15T18:29:48.892Z,2.77
2018-09-15T18:32:17.808Z,3.10
2018-09-15T18:34:47.638Z,3.40
2018-09-15T18:37:16.137Z,3.50
2018-09-15T18:39:46.446Z,3.20
2018-09-15T18:42:16.614Z,3.37
2018-09-15T18:44:52.057Z,3.40
2018-09-15T18:47:21.050Z,3.70
2018-09-15T18:49:52.945Z,3.30
2018-09-15T18:52:31.041Z,4.10
2018-09-15T18:55:01.752Z,3.77
2018-09-15T18:57:33.207Z,3.43
2018-09-15T19:00:01.998Z,3.87
2018-09-15T19:02:31.453Z,3.80
2018-09-15T19:05:00.144Z,3.50
2018-09-15T19:07:29.952Z,3.80
2018-09-15T19:10:01.298Z,3.70
2018-09-15T19:12:36.533Z,4.07
2018-09-15T19:15:07.245Z,4.00
2018-09-15T19:17:35.779Z,3.67
2018-09-15T19:20:04.292Z,4.37
2018-09-15T19:22:33.115Z,3.77
2018-09-15T19:25:01.940Z,5.10
2018-09-15T19:27:33.740Z,5.00
2018-09-15T19:30:02.434Z,4.80
2018-09-15T19:32:31.094Z,5.40
2018-09-15T19:34:59.700Z,4.97
2018-09-15T19:37:29.469Z,6.13
2018-09-15T19:39:58.206Z,4.87
2018-09-15T19:42:26.812Z,5.80
2018-09-15T19:44:58.945Z,5.50
2018-09-15T19:47:28.764Z,5.67
2018-09-15T19:49:59.900Z,5.40
2018-09-15T19:52:31.462Z,5.40
2018-09-15T19:55:06.151Z,5.53
2018-09-15T19:57:35.039Z,5.60
2018-09-15T20:00:04.760Z,5.53
2018-09-15T20:02:36.121Z,5.87
2018-09-15T20:05:11.609Z,5.27
2018-09-15T20:07:40.656Z,5.83
2018-09-15T20:10:09.545Z,5.90
2018-09-15T20:12:38.955Z,5.97
2018-09-15T20:15:17.550Z,5.53
2018-09-15T20:17:45.539Z,6.07
2018-09-15T20:20:12.975Z,6.23
2018-09-15T20:22:41.394Z,6.33
2018-09-15T20:25:09.945Z,6.60
2018-09-15T20:27:38.643Z,6.73
2018-09-15T20:30:07.497Z,6.57
2018-09-15T20:32:36.388Z,6.87
2018-09-15T20:35:05.657Z,6.67
2018-09-15T20:37:34.322Z,7.00
2018-09-15T20:40:03.955Z,6.33
2018-09-15T20:42:32.627Z,6.93
2018-09-15T20:45:01.262Z,6.50
2018-09-15T20:47:29.982Z,6.23
2018-09-15T20:49:59.323Z,7.00
2018-09-15T20:52:28.040Z,7.10
2018-09-15T20:54:57.229Z,7.27
2018-09-15T20:57:26.052Z,6.83
2018-09-15T20:59:54.547Z,6.87
2018-09-15T21:02:23.204Z,7.50
2018-09-15T21:04:51.837Z,7.57
2018-09-15T21:07:20.482Z,7.63
2018-09-15T21:09:49.270Z,8.20
2018-09-15T21:12:18.108Z,7.47
2018-09-15T21:14:46.913Z,7.83
2018-09-15T21:17:15.534Z,7.23
2018-09-15T21:19:44.193Z,7.13
2018-09-15T21:22:14.157Z,7.97
2018-09-15T21:24:42.934Z,7.67
2018-09-15T21:27:11.748Z,7.73
2018-09-15T21:29:40.223Z,7.87
2018-09-15T21:32:09.392Z,7.57
2018-09-15T21:34:38.215Z,7.20
2018-09-15T21:37:07.269Z,7.37
2018-09-15T21:42:20.776Z,7.73
2018-09-15T21:44:49.460Z,7.20
2018-09-15T21:47:18.301Z,6.80
2018-09-15T21:49:46.885Z,8.00
2018-09-15T21:52:15.659Z,6.63
2018-09-15T21:54:44.232Z,6.80
2018-09-15T21:57:12.733Z,6.80
2018-09-15T21:59:41.427Z,6.60
2018-09-15T22:02:10.010Z,8.93
2018-09-15T22:04:38.695Z,7.50
2018-09-15T22:07:07.257Z,7.90
2018-09-15T22:09:36.131Z,8.07
2018-09-15T22:12:04.643Z,7.57
2018-09-15T22:14:33.614Z,8.13
2018-09-15T22:17:03.203Z,7.53
2018-09-15T22:19:31.942Z,7.63
2018-09-15T22:22:00.846Z,7.93
2018-09-15T22:24:29.975Z,8.50
2018-09-15T22:26:58.860Z,8.70
2018-09-15T22:29:28.024Z,7.63
2018-09-15T22:31:56.848Z,8.17
2018-09-15T22:34:25.608Z,8.40
2018-09-15T22:36:54.425Z,8.70
2018-09-15T22:39:23.409Z,8.90
2018-09-15T22:41:52.516Z,9.40
2018-09-15T22:44:21.320Z,8.03
2018-09-15T22:46:49.903Z,8.17
2018-09-15T22:49:18.714Z,7.93
2018-09-15T22:51:47.425Z,7.30
2018-09-15T22:54:16.201Z,6.80
2018-09-15T22:56:45.056Z,7.07
2018-09-15T22:59:13.752Z,7.10
2018-09-15T23:01:42.681Z,6.57
2018-09-15T23:04:13.269Z,7.03
2018-09-15T23:06:41.856Z,6.77
2018-09-15T23:09:11.698Z,6.30
2018-09-15T23:11:40.250Z,6.50
2018-09-15T23:14:08.909Z,6.27
2018-09-15T23:16:37.551Z,6.10
2018-09-15T23:19:06.277Z,6.47
2018-09-15T23:21:34.843Z,6.37
2018-09-15T23:24:03.373Z,6.10
2018-09-15T23:26:31.972Z,5.53
2018-09-15T23:29:00.564Z,5.27
2018-09-15T23:31:29.899Z,5.67
2018-09-15T23:33:59.074Z,5.13
2018-09-15T23:36:27.795Z,5.50
2018-09-15T23:38:56.525Z,5.73
2018-09-15T23:41:25.663Z,5.53
2018-09-15T23:43:54.697Z,5.60
2018-09-15T23:46:23.867Z,5.47
2018-09-15T23:48:52.504Z,6.40
2018-09-15T23:51:21.302Z,6.53
2018-09-15T23:53:49.959Z,6.17
2018-09-15T23:56:18.487Z,7.13
2018-09-15T23:58:46.989Z,7.20
